Bella Bella, Bella Bella (Campbell Island) Airport (CBBC)

NameBella Bella (Campbell Island) Airport
CityBella Bella
CountryCanada
ICAOCBBC
IATA
Altitude43 m
CoordinatesGoogle Map
Live Air TrafficLiveATC.net
METARCBBC 101107Z AUTO VRB02KT 9SM BKN035 OVC043 03/03 A3002 RMK SLP168
2018-12-10 11:07:00 Wind: North (0°) 1.03 m/s - Visibility: 14484.06 m - Temperature: 3 °C - Dew point: 3 °C - Humidity: 100% - Pressure: 1016.59 hPa

Sorry, no flights used the airport in this database.